Time;durP1;ratioP1;P1;durP2;ratioP2;P2;SDS_P1;SDS_P2;PMS_P1;PMS_P2;Temp;Humidity;BMP_temperature;BMP_pressure;BME280_temperature;BME280_humidity;BME280_pressure;Samples;Min_cycle;Max_cycle;Signal;HPM_P1;HPM_P2
2024/02/19 00:00:18;;;;;;;4.85;3.83;;;;;;;;;;5030634;28;58201;-76
2024/02/19 00:02:43;;;;;;;6.67;3.43;;;;;;;;;;5031647;28;59733;-78
2024/02/19 00:05:09;;;;;;;7.07;4.38;;;;;;;;;;5023442;28;58996;-77
2024/02/19 00:07:34;;;;;;;7.73;3.40;;;;;;;;;;5018946;28;58375;-74
2024/02/19 00:09:59;;;;;;;5.63;3.40;;;;;;;;;;5017846;28;58398;-77
2024/02/19 00:12:24;;;;;;;4.35;3.72;;;;;;;;;;5023732;28;57773;-76
2024/02/19 00:14:49;;;;;;;5.30;3.88;;;;;;;;;;5010692;28;60881;-77
2024/02/19 00:17:15;;;;;;;8.03;3.67;;;;;;;;;;5020943;28;58828;-77
2024/02/19 00:19:40;;;;;;;10.80;4.63;;;;;;;;;;5030698;28;58491;-77
2024/02/19 00:22:07;;;;;;;8.27;3.63;;;;;;;;;;5018559;28;59325;-77
2024/02/19 00:24:32;;;;;;;7.50;4.35;;;;;;;;;;5017144;28;58958;-75
2024/02/19 00:26:57;;;;;;;7.53;3.47;;;;;;;;;;5021069;28;58565;-77
2024/02/19 00:29:22;;;;;;;5.50;3.53;;;;;;;;;;5026577;28;58523;-76
2024/02/19 00:31:47;;;;;;;5.67;3.07;;;;;;;;;;5026956;28;58500;-77
2024/02/19 00:34:13;;;;;;;10.95;4.25;;;;;;;;;;5024987;28;58573;-77
2024/02/19 00:36:38;;;;;;;5.73;3.87;;;;;;;;;;5032201;28;58382;-76
2024/02/19 00:39:03;;;;;;;4.67;3.10;;;;;;;;;;5024249;28;58323;-70
2024/02/19 00:41:28;;;;;;;6.63;4.13;;;;;;;;;;5022770;28;59132;-72
2024/02/19 00:43:53;;;;;;;4.95;2.65;;;;;;;;;;5024084;28;59940;-70
2024/02/19 00:46:18;;;;;;;6.77;4.37;;;;;;;;;;5023702;28;58430;-71
2024/02/19 00:48:44;;;;;;;8.02;3.88;;;;;;;;;;5018075;28;59334;-70
2024/02/19 00:51:09;;;;;;;4.55;3.42;;;;;;;;;;5028703;28;59952;-70
2024/02/19 00:53:34;;;;;;;5.18;2.80;;;;;;;;;;5020490;28;59293;-70
2024/02/19 00:55:59;;;;;;;4.20;3.40;;;;;;;;;;5021434;28;59717;-70
2024/02/19 00:58:24;;;;;;;4.90;3.22;;;;;;;;;;5027222;28;58378;-71
2024/02/19 01:00:51;;;;;;;4.70;3.53;;;;;;;;;;5017107;28;58469;-70
2024/02/19 01:03:16;;;;;;;5.60;3.22;;;;;;;;;;5019312;28;58371;-72
2024/02/19 01:05:42;;;;;;;8.07;3.70;;;;;;;;;;5016672;28;58363;-71
2024/02/19 01:08:07;;;;;;;6.43;4.20;;;;;;;;;;5020132;28;60619;-71
2024/02/19 01:10:32;;;;;;;4.95;3.33;;;;;;;;;;5022195;28;58772;-70
2024/02/19 01:12:58;;;;;;;4.40;3.25;;;;;;;;;;5018734;28;58408;-70
2024/02/19 01:15:23;;;;;;;5.37;3.00;;;;;;;;;;5017366;28;58525;-71
2024/02/19 01:17:48;;;;;;;5.67;3.63;;;;;;;;;;5025043;28;58422;-70
2024/02/19 01:20:13;;;;;;;6.77;4.20;;;;;;;;;;5028496;28;59611;-70
2024/02/19 01:22:38;;;;;;;5.70;3.72;;;;;;;;;;5023824;28;59112;-71
2024/02/19 01:25:04;;;;;;;6.33;3.40;;;;;;;;;;5014478;28;58723;-70
2024/02/19 01:27:29;;;;;;;4.72;3.45;;;;;;;;;;5019277;28;60395;-70
2024/02/19 01:29:54;;;;;;;7.27;3.20;;;;;;;;;;5016890;28;59731;-70
2024/02/19 01:32:19;;;;;;;4.93;2.65;;;;;;;;;;5020828;28;58792;-71
2024/02/19 01:34:44;;;;;;;7.30;3.63;;;;;;;;;;5027483;27;59770;-72
2024/02/19 01:37:10;;;;;;;5.82;3.47;;;;;;;;;;5027706;28;58423;-70
2024/02/19 01:39:35;;;;;;;5.50;3.70;;;;;;;;;;5028054;28;59203;-76
2024/02/19 01:42:00;;;;;;;4.63;3.47;;;;;;;;;;5011624;28;58877;-76
2024/02/19 01:44:25;;;;;;;4.97;3.07;;;;;;;;;;5019939;28;58317;-76
2024/02/19 01:46:51;;;;;;;5.68;3.42;;;;;;;;;;5022883;28;59194;-77
2024/02/19 01:49:16;;;;;;;6.72;3.22;;;;;;;;;;5017570;28;58576;-76
2024/02/19 01:51:42;;;;;;;4.60;3.03;;;;;;;;;;5027956;28;58520;-77
2024/02/19 01:54:08;;;;;;;4.85;3.50;;;;;;;;;;5026942;28;58327;-77
2024/02/19 01:56:33;;;;;;;4.53;3.03;;;;;;;;;;5018373;28;58753;-77
2024/02/19 01:58:59;;;;;;;4.63;3.50;;;;;;;;;;5016365;28;59581;-77
2024/02/19 02:01:24;;;;;;;5.65;3.03;;;;;;;;;;5018112;28;59076;-77
2024/02/19 02:03:51;;;;;;;5.85;2.90;;;;;;;;;;5027364;28;58756;-76
2024/02/19 02:06:16;;;;;;;4.63;3.13;;;;;;;;;;5029060;27;58575;-77
2024/02/19 02:08:41;;;;;;;4.87;2.87;;;;;;;;;;5028307;28;58999;-77
2024/02/19 02:11:07;;;;;;;4.97;3.43;;;;;;;;;;5022932;28;58603;-77
2024/02/19 02:13:32;;;;;;;4.68;2.42;;;;;;;;;;5018208;28;60320;-77
2024/02/19 02:15:57;;;;;;;3.33;2.45;;;;;;;;;;5025940;28;58842;-76
2024/02/19 02:18:23;;;;;;;4.77;2.97;;;;;;;;;;5009725;28;58486;-77
2024/02/19 02:20:48;;;;;;;6.70;2.85;;;;;;;;;;5011734;28;58679;-76
2024/02/19 02:23:13;;;;;;;3.70;2.57;;;;;;;;;;5021155;28;58502;-76
2024/02/19 02:25:38;;;;;;;5.40;3.17;;;;;;;;;;5026329;28;59587;-76
2024/02/19 02:28:04;;;;;;;3.90;2.10;;;;;;;;;;5016255;28;59683;-76
2024/02/19 02:30:29;;;;;;;3.27;2.60;;;;;;;;;;5017875;28;58475;-76
2024/02/19 02:32:55;;;;;;;3.50;2.40;;;;;;;;;;5012509;28;59479;-77
2024/02/19 02:35:22;;;;;;;2.70;2.42;;;;;;;;;;5013711;28;58904;-78
2024/02/19 02:37:47;;;;;;;3.17;2.80;;;;;;;;;;5016131;28;58306;-76
2024/02/19 02:40:12;;;;;;;6.43;3.20;;;;;;;;;;5014700;28;58458;-75
2024/02/19 02:42:37;;;;;;;4.77;3.20;;;;;;;;;;5015606;28;58535;-78
2024/02/19 02:45:03;;;;;;;5.80;3.50;;;;;;;;;;5019149;28;59302;-77
2024/02/19 02:47:28;;;;;;;2.88;2.45;;;;;;;;;;5015263;28;58943;-77
2024/02/19 02:49:53;;;;;;;3.20;2.10;;;;;;;;;;5019410;28;58388;-77
2024/02/19 02:52:19;;;;;;;3.47;2.72;;;;;;;;;;5026883;28;59187;-76
2024/02/19 02:54:44;;;;;;;3.93;2.57;;;;;;;;;;5024990;28;59141;-76
2024/02/19 02:57:09;;;;;;;4.03;2.70;;;;;;;;;;5018470;28;58366;-76
2024/02/19 02:59:34;;;;;;;3.25;2.25;;;;;;;;;;5017029;28;59540;-77
2024/02/19 03:01:59;;;;;;;3.65;2.28;;;;;;;;;;5020840;28;58643;-77
2024/02/19 03:04:24;;;;;;;5.20;2.92;;;;;;;;;;5027420;28;60125;-76
2024/02/19 03:06:49;;;;;;;3.70;2.23;;;;;;;;;;5024976;28;58441;-77
2024/02/19 03:09:15;;;;;;;4.67;2.23;;;;;;;;;;5025661;28;58380;-76
2024/02/19 03:11:41;;;;;;;2.85;2.55;;;;;;;;;;5026433;27;59376;-77
2024/02/19 03:14:06;;;;;;;6.60;2.80;;;;;;;;;;5025511;28;59002;-77
2024/02/19 03:16:31;;;;;;;4.50;2.10;;;;;;;;;;5025888;28;58517;-77
2024/02/19 03:18:57;;;;;;;5.78;3.25;;;;;;;;;;5025916;28;59349;-77
2024/02/19 03:21:22;;;;;;;3.87;2.70;;;;;;;;;;5026349;28;58933;-77
2024/02/19 03:23:49;;;;;;;3.38;3.08;;;;;;;;;;5017981;28;59336;-77
2024/02/19 03:26:15;;;;;;;3.33;2.17;;;;;;;;;;5012533;28;60728;-77
2024/02/19 03:28:40;;;;;;;4.13;2.83;;;;;;;;;;5018655;28;58513;-77
2024/02/19 03:31:05;;;;;;;4.47;2.70;;;;;;;;;;5024224;28;59516;-77
2024/02/19 03:33:30;;;;;;;4.32;2.63;;;;;;;;;;5025838;28;58466;-77
2024/02/19 03:35:55;;;;;;;4.53;2.97;;;;;;;;;;5026297;28;58381;-77
2024/02/19 03:38:22;;;;;;;3.20;2.25;;;;;;;;;;5024504;28;59395;-77
2024/02/19 03:40:48;;;;;;;4.15;2.35;;;;;;;;;;5020917;28;59902;-77
2024/02/19 03:43:13;;;;;;;3.83;2.20;;;;;;;;;;5025686;28;58321;-77
2024/02/19 03:45:39;;;;;;;2.67;2.00;;;;;;;;;;5024798;28;59058;-77
2024/02/19 03:48:05;;;;;;;3.97;2.67;;;;;;;;;;5025120;28;58465;-77
2024/02/19 03:50:30;;;;;;;5.25;3.00;;;;;;;;;;5016169;28;60154;-77
2024/02/19 03:52:55;;;;;;;3.45;2.55;;;;;;;;;;5015589;28;58675;-77
2024/02/19 03:55:21;;;;;;;4.47;2.83;;;;;;;;;;5015383;28;58514;-77
2024/02/19 03:57:46;;;;;;;5.63;2.53;;;;;;;;;;5015746;28;59673;-75
2024/02/19 04:00:12;;;;;;;3.33;2.37;;;;;;;;;;5023772;28;58865;-76
2024/02/19 04:02:39;;;;;;;4.53;2.58;;;;;;;;;;5026446;28;58470;-78
2024/02/19 04:05:05;;;;;;;2.90;2.28;;;;;;;;;;5025804;28;59509;-77
2024/02/19 04:07:31;;;;;;;2.95;2.33;;;;;;;;;;5023480;28;58389;-77
2024/02/19 04:09:56;;;;;;;4.28;1.90;;;;;;;;;;5016301;28;59659;-71
2024/02/19 04:12:21;;;;;;;4.00;2.73;;;;;;;;;;5025413;28;59754;-70
2024/02/19 04:14:46;;;;;;;6.10;2.90;;;;;;;;;;5025501;28;58607;-72
2024/02/19 04:17:11;;;;;;;5.50;2.73;;;;;;;;;;5019837;28;59550;-70
2024/02/19 04:19:36;;;;;;;4.60;2.67;;;;;;;;;;5015885;28;58672;-70
2024/02/19 04:22:02;;;;;;;4.97;2.45;;;;;;;;;;5016446;28;58343;-70
2024/02/19 04:24:27;;;;;;;2.53;1.80;;;;;;;;;;5028731;28;59338;-70
2024/02/19 04:26:52;;;;;;;2.60;1.80;;;;;;;;;;5021673;28;58377;-70
2024/02/19 04:29:17;;;;;;;5.07;2.88;;;;;;;;;;5021000;28;59305;-70
2024/02/19 04:31:43;;;;;;;4.43;2.73;;;;;;;;;;5016021;28;59903;-71
2024/02/19 04:34:08;;;;;;;6.43;3.08;;;;;;;;;;5018994;28;58381;-70
2024/02/19 04:36:33;;;;;;;2.78;2.03;;;;;;;;;;5014614;28;59472;-70
2024/02/19 04:38:58;;;;;;;5.37;2.70;;;;;;;;;;5016650;28;58609;-71
2024/02/19 04:41:23;;;;;;;2.58;2.03;;;;;;;;;;5024696;28;58404;-69
2024/02/19 04:43:49;;;;;;;3.17;2.33;;;;;;;;;;5027728;28;60106;-70
2024/02/19 04:46:14;;;;;;;2.95;2.65;;;;;;;;;;5026155;28;58602;-70
2024/02/19 04:48:39;;;;;;;4.07;2.15;;;;;;;;;;5021392;28;60394;-70
2024/02/19 04:51:05;;;;;;;3.33;2.33;;;;;;;;;;5026403;28;59318;-70
2024/02/19 04:53:30;;;;;;;3.63;2.05;;;;;;;;;;5028145;27;58598;-72
2024/02/19 04:55:55;;;;;;;1.80;1.33;;;;;;;;;;5024989;28;59795;-70
2024/02/19 04:58:20;;;;;;;2.43;2.17;;;;;;;;;;5018980;28;58436;-70
2024/02/19 05:00:45;;;;;;;3.77;2.23;;;;;;;;;;5017128;28;58485;-70
2024/02/19 05:03:11;;;;;;;2.83;1.97;;;;;;;;;;5026149;28;59680;-71
2024/02/19 05:05:36;;;;;;;3.47;2.20;;;;;;;;;;5019680;28;59009;-70
2024/02/19 05:08:03;;;;;;;3.22;2.60;;;;;;;;;;5018694;28;58179;-70
2024/02/19 05:10:28;;;;;;;3.65;2.63;;;;;;;;;;5016064;28;58786;-77
2024/02/19 05:12:53;;;;;;;3.10;1.90;;;;;;;;;;5016299;28;58511;-77
2024/02/19 05:15:18;;;;;;;3.05;2.50;;;;;;;;;;5016273;28;58774;-77
2024/02/19 05:17:43;;;;;;;2.53;2.05;;;;;;;;;;5023088;28;59057;-78
2024/02/19 05:20:10;;;;;;;4.20;1.87;;;;;;;;;;5021202;28;58310;-70
2024/02/19 05:22:36;;;;;;;3.40;2.37;;;;;;;;;;5017073;28;59415;-71
2024/02/19 05:25:02;;;;;;;3.45;2.17;;;;;;;;;;5014336;28;59008;-70
2024/02/19 05:27:27;;;;;;;2.85;1.98;;;;;;;;;;5017200;28;58399;-71
2024/02/19 05:29:52;;;;;;;2.00;1.80;;;;;;;;;;5016890;28;59498;-71
2024/02/19 05:32:17;;;;;;;3.10;2.77;;;;;;;;;;5018781;28;58463;-71
2024/02/19 05:34:42;;;;;;;3.17;2.10;;;;;;;;;;5020536;28;59350;-72
2024/02/19 05:37:08;;;;;;;2.53;1.83;;;;;;;;;;5016641;28;58727;-70
2024/02/19 05:39:33;;;;;;;3.33;2.22;;;;;;;;;;5016390;28;58448;-72
2024/02/19 05:41:58;;;;;;;3.80;2.30;;;;;;;;;;5015148;28;59676;-70
2024/02/19 05:44:23;;;;;;;2.17;1.73;;;;;;;;;;5016759;28;59971;-71
2024/02/19 05:46:48;;;;;;;3.87;2.53;;;;;;;;;;5014343;28;58569;-70
2024/02/19 05:49:13;;;;;;;2.95;2.25;;;;;;;;;;5011731;28;59244;-71
2024/02/19 05:51:41;;;;;;;3.40;2.15;;;;;;;;;;5025569;28;59603;-71
2024/02/19 05:54:07;;;;;;;1.88;1.75;;;;;;;;;;5026190;28;58565;-70
2024/02/19 05:56:32;;;;;;;4.30;2.53;;;;;;;;;;5025060;28;59083;-70
2024/02/19 05:58:57;;;;;;;3.03;1.90;;;;;;;;;;5022813;28;58732;-71
2024/02/19 06:01:23;;;;;;;2.80;2.20;;;;;;;;;;5016825;28;59321;-70
2024/02/19 06:03:48;;;;;;;2.57;2.00;;;;;;;;;;5025845;28;58650;-71
2024/02/19 06:06:13;;;;;;;3.70;2.10;;;;;;;;;;5015453;28;58313;-71
2024/02/19 06:08:38;;;;;;;2.77;2.40;;;;;;;;;;5024272;28;58619;-73
2024/02/19 06:11:03;;;;;;;3.97;2.50;;;;;;;;;;5023324;28;58978;-71
2024/02/19 06:13:28;;;;;;;3.83;3.17;;;;;;;;;;5023102;28;58551;-71
2024/02/19 06:15:54;;;;;;;5.47;3.07;;;;;;;;;;5028199;28;58740;-70
2024/02/19 06:18:19;;;;;;;6.87;2.73;;;;;;;;;;5018553;28;58597;-71
2024/02/19 06:20:44;;;;;;;3.37;2.10;;;;;;;;;;5024015;28;59426;-77
2024/02/19 06:23:09;;;;;;;6.28;3.45;;;;;;;;;;5028929;28;58496;-76
2024/02/19 06:25:34;;;;;;;6.07;3.40;;;;;;;;;;5023816;28;58368;-76
2024/02/19 06:28:02;;;;;;;7.20;3.40;;;;;;;;;;5014812;28;59669;-76
2024/02/19 06:30:27;;;;;;;14.88;5.85;;;;;;;;;;5028386;28;59423;-75
2024/02/19 06:32:52;;;;;;;9.50;4.13;;;;;;;;;;5017185;28;58397;-76
2024/02/19 06:35:17;;;;;;;5.97;4.22;;;;;;;;;;5015459;28;58499;-75
2024/02/19 06:37:42;;;;;;;8.27;3.80;;;;;;;;;;5019527;28;58502;-77
2024/02/19 06:40:08;;;;;;;13.50;5.33;;;;;;;;;;5026432;28;59422;-77
2024/02/19 06:42:33;;;;;;;8.00;4.82;;;;;;;;;;5012662;28;60034;-77
2024/02/19 06:44:58;;;;;;;11.13;4.70;;;;;;;;;;5024289;28;58421;-76
2024/02/19 06:47:23;;;;;;;10.37;5.23;;;;;;;;;;5025075;28;59322;-76
2024/02/19 06:49:48;;;;;;;12.57;5.03;;;;;;;;;;5021090;28;59893;-77
2024/02/19 06:52:14;;;;;;;12.75;6.70;;;;;;;;;;5016095;28;58155;-76
2024/02/19 06:54:39;;;;;;;10.53;4.63;;;;;;;;;;5026848;28;58516;-77
2024/02/19 06:57:04;;;;;;;15.98;6.13;;;;;;;;;;5016947;28;58484;-77
2024/02/19 06:59:30;;;;;;;11.37;5.57;;;;;;;;;;5015106;28;59652;-75
2024/02/19 07:01:55;;;;;;;20.10;7.97;;;;;;;;;;5014405;28;59212;-78
2024/02/19 07:04:21;;;;;;;13.47;5.80;;;;;;;;;;5018380;28;58405;-75
2024/02/19 07:06:46;;;;;;;10.73;5.97;;;;;;;;;;5017677;28;58482;-74
2024/02/19 07:09:11;;;;;;;16.70;6.53;;;;;;;;;;5025808;28;58408;-77
2024/02/19 07:11:36;;;;;;;24.57;8.83;;;;;;;;;;5020857;28;58450;-76
2024/02/19 07:14:02;;;;;;;18.27;7.00;;;;;;;;;;5018124;28;59916;-77
2024/02/19 07:16:27;;;;;;;16.50;6.20;;;;;;;;;;5017778;28;58845;-77
2024/02/19 07:18:52;;;;;;;18.10;8.20;;;;;;;;;;5028335;28;59205;-77
2024/02/19 07:21:17;;;;;;;17.50;7.50;;;;;;;;;;5026029;28;58945;-77
2024/02/19 07:23:42;;;;;;;18.58;6.80;;;;;;;;;;5025450;28;58548;-77
2024/02/19 07:26:08;;;;;;;15.95;6.30;;;;;;;;;;5025403;28;59326;-77
2024/02/19 07:28:33;;;;;;;14.30;6.80;;;;;;;;;;5020359;28;58582;-78
2024/02/19 07:30:58;;;;;;;20.53;8.50;;;;;;;;;;5005354;28;58510;-76
2024/02/19 07:33:23;;;;;;;15.55;7.78;;;;;;;;;;5019685;28;58510;-76
2024/02/19 07:35:48;;;;;;;10.63;6.30;;;;;;;;;;5018149;28;59772;-75
2024/02/19 07:38:13;;;;;;;16.93;7.33;;;;;;;;;;5025113;28;58367;-78
2024/02/19 07:40:39;;;;;;;17.77;8.00;;;;;;;;;;5020007;28;58413;-71
2024/02/19 07:43:04;;;;;;;15.38;7.35;;;;;;;;;;5013561;28;58732;-70
2024/02/19 07:45:30;;;;;;;18.70;8.75;;;;;;;;;;5026235;28;59754;-71
2024/02/19 07:47:55;;;;;;;14.50;6.95;;;;;;;;;;5009775;28;58489;-71
2024/02/19 07:50:20;;;;;;;17.15;7.05;;;;;;;;;;5016690;28;58445;-70
2024/02/19 07:52:47;;;;;;;13.30;6.40;;;;;;;;;;5021984;28;60253;-71
2024/02/19 07:55:12;;;;;;;15.80;6.40;;;;;;;;;;5026479;28;58676;-70
2024/02/19 07:57:37;;;;;;;14.73;7.43;;;;;;;;;;5029410;28;58390;-70
2024/02/19 08:00:03;;;;;;;19.27;7.23;;;;;;;;;;5027896;28;59323;-70
2024/02/19 08:02:28;;;;;;;12.88;6.28;;;;;;;;;;5023174;28;58493;-70
2024/02/19 08:04:54;;;;;;;13.10;5.20;;;;;;;;;;5021839;28;60321;-70
2024/02/19 08:07:19;;;;;;;11.88;5.63;;;;;;;;;;5025690;28;58389;-71
2024/02/19 08:09:45;;;;;;;14.75;5.68;;;;;;;;;;5015128;28;58371;-72
2024/02/19 08:12:10;;;;;;;12.15;5.22;;;;;;;;;;5026022;28;58469;-71
2024/02/19 08:14:36;;;;;;;10.20;4.93;;;;;;;;;;5010300;28;59662;-71
2024/02/19 08:17:01;;;;;;;14.32;5.32;;;;;;;;;;5016593;28;58512;-70
2024/02/19 08:19:26;;;;;;;13.38;5.70;;;;;;;;;;5022559;28;59856;-70
2024/02/19 08:21:51;;;;;;;11.03;5.03;;;;;;;;;;5026306;28;58456;-70
2024/02/19 08:24:17;;;;;;;12.63;5.27;;;;;;;;;;5027320;28;59455;-70
2024/02/19 08:26:42;;;;;;;10.85;5.32;;;;;;;;;;5018105;28;59967;-70
2024/02/19 08:29:07;;;;;;;12.70;5.37;;;;;;;;;;5022202;28;58485;-70
2024/02/19 08:31:32;;;;;;;8.93;5.13;;;;;;;;;;5028761;27;58628;-70
2024/02/19 08:33:58;;;;;;;13.57;5.78;;;;;;;;;;5027912;28;59619;-70
2024/02/19 08:36:23;;;;;;;8.63;5.07;;;;;;;;;;5028732;28;58398;-69
2024/02/19 08:38:55;;;;;;;10.63;4.83;;;;;;;;;;5029459;28;58478;-72
2024/02/19 08:41:20;;;;;;;12.23;5.63;;;;;;;;;;5028160;28;59827;-72
2024/02/19 08:43:45;;;;;;;9.07;4.27;;;;;;;;;;5026658;28;59409;-72
2024/02/19 08:46:10;;;;;;;16.63;6.88;;;;;;;;;;5025091;28;59270;-72
2024/02/19 08:48:35;;;;;;;9.40;3.93;;;;;;;;;;5017070;28;58466;-73
2024/02/19 08:51:01;;;;;;;7.93;4.07;;;;;;;;;;5026556;28;58874;-74
2024/02/19 08:53:27;;;;;;;9.57;5.03;;;;;;;;;;5029825;28;59829;-73
2024/02/19 08:55:53;;;;;;;12.13;4.93;;;;;;;;;;5022460;28;58444;-73
2024/02/19 08:58:18;;;;;;;9.27;5.00;;;;;;;;;;5016752;28;58401;-73
2024/02/19 09:00:43;;;;;;;13.60;5.03;;;;;;;;;;5027677;28;59412;-73
2024/02/19 09:03:08;;;;;;;7.10;4.60;;;;;;;;;;5027952;28;58499;-73
2024/02/19 09:05:35;;;;;;;8.07;4.25;;;;;;;;;;5018171;28;58564;-73
2024/02/19 09:08:00;;;;;;;7.72;4.22;;;;;;;;;;5012409;28;58450;-73
2024/02/19 09:10:26;;;;;;;10.40;5.33;;;;;;;;;;5012307;28;58508;-73
2024/02/19 09:12:51;;;;;;;9.93;4.50;;;;;;;;;;5016716;28;58742;-73
2024/02/19 09:15:16;;;;;;;10.02;4.30;;;;;;;;;;5014241;28;58432;-73
2024/02/19 09:17:42;;;;;;;7.43;4.53;;;;;;;;;;5016041;28;59210;-73
2024/02/19 09:20:07;;;;;;;8.85;4.20;;;;;;;;;;5020692;28;58721;-73
2024/02/19 09:22:33;;;;;;;8.80;4.15;;;;;;;;;;5026771;28;58514;-73
2024/02/19 09:24:58;;;;;;;9.32;3.83;;;;;;;;;;5026668;28;59456;-73
2024/02/19 09:27:23;;;;;;;8.13;4.05;;;;;;;;;;5028159;28;58417;-72
2024/02/19 09:29:49;;;;;;;10.30;4.18;;;;;;;;;;5013806;28;59414;-73
2024/02/19 09:32:14;;;;;;;9.83;4.53;;;;;;;;;;5011219;28;58406;-73
2024/02/19 09:34:40;;;;;;;8.77;5.07;;;;;;;;;;5017651;28;58467;-73
2024/02/19 09:37:05;;;;;;;8.43;4.57;;;;;;;;;;5014915;28;58370;-73
2024/02/19 09:39:31;;;;;;;9.07;4.00;;;;;;;;;;5027407;28;59186;-73
2024/02/19 09:41:56;;;;;;;7.22;3.60;;;;;;;;;;5016620;28;58438;-73
2024/02/19 09:44:21;;;;;;;7.67;4.43;;;;;;;;;;5016572;28;58535;-73
2024/02/19 09:46:48;;;;;;;6.60;4.18;;;;;;;;;;5016838;28;59989;-73
2024/02/19 09:49:14;;;;;;;7.30;4.75;;;;;;;;;;5018046;28;59640;-73
2024/02/19 09:51:46;;;;;;;7.47;3.65;;;;;;;;;;5015134;28;58429;-73
2024/02/19 09:54:11;;;;;;;5.60;3.72;;;;;;;;;;5015356;28;58639;-73
2024/02/19 09:56:37;;;;;;;7.27;3.97;;;;;;;;;;5016162;28;58554;-73
2024/02/19 09:59:04;;;;;;;5.10;3.15;;;;;;;;;;5019119;28;58859;-69
2024/02/19 10:01:29;;;;;;;7.63;4.43;;;;;;;;;;5027274;28;58319;-68
2024/02/19 10:03:56;;;;;;;6.03;3.10;;;;;;;;;;5028492;28;60144;-68
2024/02/19 10:06:29;;;;;;;7.10;3.65;;;;;;;;;;5028768;28;62929;-69
2024/02/19 10:08:54;;;;;;;7.68;3.83;;;;;;;;;;5027738;28;58387;-69
2024/02/19 10:11:19;;;;;;;8.70;4.43;;;;;;;;;;5019827;28;58799;-69
2024/02/19 10:13:44;;;;;;;7.47;3.93;;;;;;;;;;5016052;28;58391;-68
2024/02/19 10:16:10;;;;;;;7.78;3.63;;;;;;;;;;5016919;28;58399;-69
2024/02/19 10:18:36;;;;;;;7.20;4.03;;;;;;;;;;5012927;28;59002;-69
2024/02/19 10:21:01;;;;;;;7.55;3.28;;;;;;;;;;5016459;28;58846;-68
2024/02/19 10:23:27;;;;;;;9.48;4.35;;;;;;;;;;5021393;28;59463;-68
2024/02/19 10:25:53;;;;;;;7.83;4.20;;;;;;;;;;5026003;28;59018;-69
2024/02/19 10:28:21;;;;;;;5.05;3.10;;;;;;;;;;5026204;28;58380;-68
2024/02/19 10:30:46;;;;;;;5.05;3.10;;;;;;;;;;5012876;28;60245;-69
2024/02/19 10:33:12;;;;;;;4.83;3.23;;;;;;;;;;5022812;28;58557;-69
2024/02/19 10:35:37;;;;;;;8.27;3.87;;;;;;;;;;5015086;28;59427;-69
2024/02/19 10:38:02;;;;;;;6.23;4.07;;;;;;;;;;5014429;28;58853;-69
2024/02/19 10:40:27;;;;;;;8.57;4.60;;;;;;;;;;5012270;28;58444;-69
2024/02/19 10:42:53;;;;;;;6.63;3.40;;;;;;;;;;5013556;28;60151;-69
2024/02/19 10:45:21;;;;;;;6.10;3.47;;;;;;;;;;5025799;28;58991;-70
2024/02/19 10:47:46;;;;;;;4.50;2.70;;;;;;;;;;5025941;28;58265;-69
2024/02/19 10:50:14;;;;;;;4.93;2.83;;;;;;;;;;5026807;28;58475;-69
2024/02/19 10:52:39;;;;;;;;;;;;;;;;;;5027077;28;58588;-69
2024/02/19 10:55:07;;;;;;;6.87;3.40;;;;;;;;;;5026919;28;59320;-68
2024/02/19 10:57:32;;;;;;;6.80;3.83;;;;;;;;;;5028281;28;58976;-69
2024/02/19 11:00:05;;;;;;;5.87;3.37;;;;;;;;;;5027536;28;58594;-69
2024/02/19 11:02:31;;;;;;;8.18;4.22;;;;;;;;;;5018325;28;58600;-69
2024/02/19 11:04:57;;;;;;;7.57;3.42;;;;;;;;;;5016020;28;58620;-68
2024/02/19 11:07:23;;;;;;;5.85;3.65;;;;;;;;;;5016186;28;58420;-69
2024/02/19 11:09:57;;;;;;;7.30;4.00;;;;;;;;;;5014685;28;59339;-73
2024/02/19 11:12:25;;;;;;;5.40;3.55;;;;;;;;;;5025368;28;63259;-73
2024/02/19 11:14:50;;;;;;;5.60;3.10;;;;;;;;;;5008689;28;60625;-73
2024/02/19 11:17:16;;;;;;;4.35;3.10;;;;;;;;;;5002074;28;58887;-73
2024/02/19 11:19:41;;;;;;;4.97;2.95;;;;;;;;;;5011719;28;58386;-70
2024/02/19 11:22:08;;;;;;;5.57;3.43;;;;;;;;;;5030051;28;60295;-70
2024/02/19 11:24:33;;;;;;;6.32;4.03;;;;;;;;;;5023508;28;58745;-70
2024/02/19 11:26:58;;;;;;;4.38;3.25;;;;;;;;;;5024181;28;58532;-70
2024/02/19 11:29:24;;;;;;;4.40;2.40;;;;;;;;;;5019320;28;59275;-71
2024/02/19 11:31:57;;;;;;;4.55;3.33;;;;;;;;;;5017528;28;59463;-70
2024/02/19 11:34:22;;;;;;;5.57;2.85;;;;;;;;;;5026517;28;58459;-70
2024/02/19 11:36:48;;;;;;;5.37;3.63;;;;;;;;;;5024981;28;59020;-70
2024/02/19 11:39:13;;;;;;;4.72;3.28;;;;;;;;;;5014204;28;58778;-70
2024/02/19 11:41:41;;;;;;;4.20;3.03;;;;;;;;;;5022423;28;59438;-70
2024/02/19 11:44:06;;;;;;;;;;;;;;;;;;5017035;28;58476;-70
2024/02/19 11:46:31;;;;;;;5.90;3.22;;;;;;;;;;5027682;28;58490;-70
2024/02/19 11:48:57;;;;;;;6.53;3.97;;;;;;;;;;5023741;28;58726;-70
2024/02/19 11:51:22;;;;;;;5.80;3.53;;;;;;;;;;5023681;28;58906;-70
2024/02/19 11:53:48;;;;;;;4.67;3.27;;;;;;;;;;5020078;28;58405;-70
2024/02/19 11:56:18;;;;;;;4.53;3.25;;;;;;;;;;5016684;28;59277;-70
2024/02/19 11:58:43;;;;;;;5.05;2.63;;;;;;;;;;5015510;28;58432;-70
2024/02/19 12:01:08;;;;;;;4.83;3.03;;;;;;;;;;5005438;28;59529;-71
2024/02/19 12:03:37;;;;;;;5.90;3.30;;;;;;;;;;5020621;28;58552;-70
2024/02/19 12:06:03;;;;;;;4.28;2.88;;;;;;;;;;5012698;28;58431;-71
2024/02/19 12:08:30;;;;;;;4.95;2.67;;;;;;;;;;5017588;28;59231;-70
2024/02/19 12:10:56;;;;;;;5.15;3.30;;;;;;;;;;5017855;28;59089;-69
2024/02/19 12:13:22;;;;;;;5.95;2.70;;;;;;;;;;5022369;28;58472;-70
2024/02/19 12:15:50;;;;;;;5.47;2.60;;;;;;;;;;5012745;28;59483;-69
2024/02/19 12:18:15;;;;;;;4.15;2.65;;;;;;;;;;5015469;28;58866;-70
2024/02/19 12:20:41;;;;;;;3.73;2.27;;;;;;;;;;5013729;28;59453;-73
2024/02/19 12:23:07;;;;;;;4.03;3.00;;;;;;;;;;5019212;28;58407;-73
2024/02/19 12:25:32;;;;;;;4.47;2.75;;;;;;;;;;5024510;28;58504;-73
2024/02/19 12:27:57;;;;;;;4.00;2.73;;;;;;;;;;5024680;28;59973;-73
2024/02/19 12:30:23;;;;;;;5.45;3.28;;;;;;;;;;5025179;28;58884;-70
2024/02/19 12:32:48;;;;;;;4.45;2.58;;;;;;;;;;5025800;28;58405;-69
2024/02/19 12:35:15;;;;;;;3.50;2.37;;;;;;;;;;5018788;28;59314;-70
2024/02/19 12:37:40;;;;;;;3.42;2.20;;;;;;;;;;5017422;28;59123;-69
2024/02/19 12:40:06;;;;;;;3.90;2.97;;;;;;;;;;5025369;28;58318;-70
2024/02/19 12:42:31;;;;;;;5.45;3.28;;;;;;;;;;5027593;28;58913;-70
2024/02/19 12:44:56;;;;;;;5.63;2.83;;;;;;;;;;5018382;28;58174;-70
2024/02/19 12:47:23;;;;;;;3.47;2.90;;;;;;;;;;5019154;28;60246;-71
2024/02/19 12:49:48;;;;;;;4.22;2.70;;;;;;;;;;5021357;28;58789;-70
2024/02/19 12:52:14;;;;;;;5.45;2.95;;;;;;;;;;5025242;28;58737;-70
2024/02/19 12:54:46;;;;;;;3.45;2.53;;;;;;;;;;5017023;28;59305;-70
2024/02/19 12:57:13;;;;;;;3.20;2.15;;;;;;;;;;5017820;28;58841;-70
2024/02/19 12:59:38;;;;;;;4.95;3.25;;;;;;;;;;5019956;28;58399;-70
2024/02/19 13:02:04;;;;;;;3.53;2.67;;;;;;;;;;5015987;28;59763;-70
2024/02/19 13:04:29;;;;;;;3.22;2.50;;;;;;;;;;5019260;28;58526;-70
2024/02/19 13:06:55;;;;;;;5.00;2.77;;;;;;;;;;5025756;28;59755;-70
2024/02/19 13:09:20;;;;;;;4.20;2.47;;;;;;;;;;5007853;28;62037;-70
2024/02/19 13:11:46;;;;;;;3.47;2.25;;;;;;;;;;5024264;28;58486;-70
2024/02/19 13:14:11;;;;;;;3.97;2.10;;;;;;;;;;5028553;28;58773;-71
2024/02/19 13:16:36;;;;;;;3.58;2.90;;;;;;;;;;5026962;28;58887;-70
2024/02/19 13:19:01;;;;;;;3.25;2.85;;;;;;;;;;5027241;28;58574;-70
2024/02/19 13:21:27;;;;;;;4.43;2.40;;;;;;;;;;5028349;28;59214;-70
2024/02/19 13:23:52;;;;;;;3.53;2.35;;;;;;;;;;5027434;28;58537;-71
2024/02/19 13:26:17;;;;;;;3.73;2.37;;;;;;;;;;5019393;28;59142;-70
2024/02/19 13:28:42;;;;;;;3.08;2.78;;;;;;;;;;5018864;28;58401;-70
2024/02/19 13:31:07;;;;;;;3.07;1.83;;;;;;;;;;5025476;28;58359;-70
2024/02/19 13:33:33;;;;;;;4.37;2.57;;;;;;;;;;5020226;28;59488;-71
2024/02/19 13:35:59;;;;;;;3.63;2.57;;;;;;;;;;5025767;28;59129;-70
2024/02/19 13:38:25;;;;;;;4.45;2.83;;;;;;;;;;5026618;28;58496;-73
2024/02/19 13:40:50;;;;;;;2.35;1.75;;;;;;;;;;5028384;28;58675;-73
2024/02/19 13:43:16;;;;;;;2.60;2.37;;;;;;;;;;5029010;28;58903;-73
2024/02/19 13:45:58;;;;;;;4.18;2.90;;;;;;;;;;5026049;28;60241;-73
2024/02/19 13:48:24;;;;;;;3.55;2.13;;;;;;;;;;5027777;28;62275;-72
2024/02/19 13:50:50;;;;;;;4.25;2.50;;;;;;;;;;5030257;28;58195;-73
2024/02/19 13:53:15;;;;;;;4.07;2.78;;;;;;;;;;5029916;28;60472;-73
2024/02/19 13:55:40;;;;;;;4.10;3.07;;;;;;;;;;5028074;28;59232;-73
2024/02/19 13:58:07;;;;;;;2.50;1.92;;;;;;;;;;5032442;27;58047;-73
2024/02/19 14:00:32;;;;;;;4.20;2.75;;;;;;;;;;5026870;28;58674;-73
2024/02/19 14:02:57;;;;;;;4.20;2.42;;;;;;;;;;5024939;28;58726;-73
2024/02/19 14:05:23;;;;;;;3.28;2.28;;;;;;;;;;5021198;28;58584;-73
2024/02/19 14:07:49;;;;;;;3.53;2.43;;;;;;;;;;5011816;28;58043;-73
2024/02/19 14:10:14;;;;;;;2.47;1.98;;;;;;;;;;5016771;28;58451;-73
2024/02/19 14:12:39;;;;;;;3.67;2.53;;;;;;;;;;5030795;28;58637;-73
2024/02/19 14:15:05;;;;;;;3.38;2.35;;;;;;;;;;5016695;28;58957;-73
2024/02/19 14:17:30;;;;;;;2.60;1.90;;;;;;;;;;5018316;28;58447;-73
2024/02/19 14:19:55;;;;;;;3.03;1.98;;;;;;;;;;5022120;28;58407;-73
2024/02/19 14:22:21;;;;;;;3.37;2.10;;;;;;;;;;5026100;28;58448;-73
2024/02/19 14:24:46;;;;;;;2.35;2.03;;;;;;;;;;5013440;28;58279;-73
2024/02/19 14:27:12;;;;;;;2.87;2.00;;;;;;;;;;5027957;28;59311;-73
2024/02/19 14:29:37;;;;;;;2.87;2.57;;;;;;;;;;5026879;28;58535;-74